sensor_id;sensor_type;location;lat;lon;timestamp;P1;durP1;ratioP1;P2;durP2;ratioP2
28724;SDS011;43472;48.980;9.646;2023-02-01T00:02:19;5.72;;;3.38;;
28724;SDS011;43472;48.980;9.646;2023-02-01T00:07:22;7.55;;;2.90;;
28724;SDS011;43472;48.980;9.646;2023-02-01T00:12:24;6.18;;;3.13;;
28724;SDS011;43472;48.980;9.646;2023-02-01T00:17:26;3.83;;;2.60;;
28724;SDS011;43472;48.980;9.646;2023-02-01T00:22:28;5.03;;;3.05;;
28724;SDS011;43472;48.980;9.646;2023-02-01T00:27:30;5.03;;;3.15;;
28724;SDS011;43472;48.980;9.646;2023-02-01T00:32:32;7.30;;;2.95;;
28724;SDS011;43472;48.980;9.646;2023-02-01T00:37:34;9.88;;;3.42;;
28724;SDS011;43472;48.980;9.646;2023-02-01T00:42:36;4.13;;;2.55;;
28724;SDS011;43472;48.980;9.646;2023-02-01T00:47:39;5.72;;;2.80;;
28724;SDS011;43472;48.980;9.646;2023-02-01T00:52:41;3.08;;;2.10;;
28724;SDS011;43472;48.980;9.646;2023-02-01T00:57:43;4.35;;;2.75;;
28724;SDS011;43472;48.980;9.646;2023-02-01T01:02:45;3.03;;;2.20;;
28724;SDS011;43472;48.980;9.646;2023-02-01T01:07:46;4.55;;;2.45;;
28724;SDS011;43472;48.980;9.646;2023-02-01T01:12:48;5.35;;;2.50;;
28724;SDS011;43472;48.980;9.646;2023-02-01T01:17:50;3.35;;;2.13;;
28724;SDS011;43472;48.980;9.646;2023-02-01T01:22:52;3.00;;;2.13;;
28724;SDS011;43472;48.980;9.646;2023-02-01T01:27:53;3.92;;;2.38;;
28724;SDS011;43472;48.980;9.646;2023-02-01T01:32:56;4.78;;;2.20;;
28724;SDS011;43472;48.980;9.646;2023-02-01T01:37:58;2.20;;;1.73;;
28724;SDS011;43472;48.980;9.646;2023-02-01T01:43:01;2.38;;;1.90;;
28724;SDS011;43472;48.980;9.646;2023-02-01T01:53:07;2.83;;;2.00;;
28724;SDS011;43472;48.980;9.646;2023-02-01T01:58:16;4.47;;;1.95;;
28724;SDS011;43472;48.980;9.646;2023-02-01T02:03:22;3.00;;;1.73;;
28724;SDS011;43472;48.980;9.646;2023-02-01T02:08:28;3.17;;;1.70;;
28724;SDS011;43472;48.980;9.646;2023-02-01T02:13:34;2.80;;;1.60;;
28724;SDS011;43472;48.980;9.646;2023-02-01T02:18:49;2.10;;;1.70;;
28724;SDS011;43472;48.980;9.646;2023-02-01T02:34:52;1.35;;;1.23;;
28724;SDS011;43472;48.980;9.646;2023-02-01T02:40:13;2.38;;;1.77;;
28724;SDS011;43472;48.980;9.646;2023-02-01T02:51:03;1.35;;;1.23;;
28724;SDS011;43472;48.980;9.646;2023-02-01T02:56:29;1.52;;;1.27;;
28724;SDS011;43472;48.980;9.646;2023-02-01T03:01:50;3.65;;;1.33;;
28724;SDS011;43472;48.980;9.646;2023-02-01T03:07:46;2.05;;;1.13;;
28724;SDS011;43472;48.980;9.646;2023-02-01T03:12:43;3.15;;;1.70;;
28724;SDS011;43472;48.980;9.646;2023-02-01T03:17:57;1.63;;;1.10;;
28724;SDS011;43472;48.980;9.646;2023-02-01T03:23:02;4.68;;;1.40;;
28724;SDS011;43472;48.980;9.646;2023-02-01T03:28:07;2.10;;;1.50;;
28724;SDS011;43472;48.980;9.646;2023-02-01T03:33:12;2.17;;;1.30;;
28724;SDS011;43472;48.980;9.646;2023-02-01T03:44:01;1.83;;;1.27;;
28724;SDS011;43472;48.980;9.646;2023-02-01T03:49:20;1.45;;;1.10;;
28724;SDS011;43472;48.980;9.646;2023-02-01T03:54:36;2.63;;;1.20;;
28724;SDS011;43472;48.980;9.646;2023-02-01T03:59:41;1.20;;;1.05;;
28724;SDS011;43472;48.980;9.646;2023-02-01T04:04:45;2.63;;;1.48;;
28724;SDS011;43472;48.980;9.646;2023-02-01T04:09:47;2.33;;;1.40;;
28724;SDS011;43472;48.980;9.646;2023-02-01T04:14:49;1.52;;;1.20;;
28724;SDS011;43472;48.980;9.646;2023-02-01T04:19:51;2.78;;;1.55;;
28724;SDS011;43472;48.980;9.646;2023-02-01T04:24:55;1.88;;;1.40;;
28724;SDS011;43472;48.980;9.646;2023-02-01T04:29:57;2.40;;;1.40;;
28724;SDS011;43472;48.980;9.646;2023-02-01T04:34:59;5.40;;;1.13;;
28724;SDS011;43472;48.980;9.646;2023-02-01T04:40:00;1.45;;;1.35;;
28724;SDS011;43472;48.980;9.646;2023-02-01T04:45:05;1.48;;;1.25;;
28724;SDS011;43472;48.980;9.646;2023-02-01T04:50:07;2.85;;;1.65;;
28724;SDS011;43472;48.980;9.646;2023-02-01T04:55:11;2.15;;;1.48;;
28724;SDS011;43472;48.980;9.646;2023-02-01T05:00:14;2.10;;;1.40;;
28724;SDS011;43472;48.980;9.646;2023-02-01T05:05:17;8.10;;;3.95;;
28724;SDS011;43472;48.980;9.646;2023-02-01T05:10:19;6.03;;;3.65;;
28724;SDS011;43472;48.980;9.646;2023-02-01T05:15:22;2.92;;;1.65;;
28724;SDS011;43472;48.980;9.646;2023-02-01T05:20:24;2.95;;;1.92;;
28724;SDS011;43472;48.980;9.646;2023-02-01T05:25:26;4.72;;;2.10;;
28724;SDS011;43472;48.980;9.646;2023-02-01T05:30:28;12.30;;;5.97;;
28724;SDS011;43472;48.980;9.646;2023-02-01T05:35:30;3.20;;;2.00;;
28724;SDS011;43472;48.980;9.646;2023-02-01T05:40:32;10.02;;;5.38;;
28724;SDS011;43472;48.980;9.646;2023-02-01T05:45:34;3.83;;;2.30;;
28724;SDS011;43472;48.980;9.646;2023-02-01T05:50:36;1.83;;;1.52;;
28724;SDS011;43472;48.980;9.646;2023-02-01T05:55:38;3.40;;;2.38;;
28724;SDS011;43472;48.980;9.646;2023-02-01T06:00:41;3.92;;;2.67;;
28724;SDS011;43472;48.980;9.646;2023-02-01T06:05:46;3.47;;;1.73;;
28724;SDS011;43472;48.980;9.646;2023-02-01T06:10:48;5.97;;;2.35;;
28724;SDS011;43472;48.980;9.646;2023-02-01T06:15:50;2.70;;;1.83;;
28724;SDS011;43472;48.980;9.646;2023-02-01T06:20:55;3.70;;;1.63;;
28724;SDS011;43472;48.980;9.646;2023-02-01T06:25:59;4.93;;;2.45;;
28724;SDS011;43472;48.980;9.646;2023-02-01T06:31:04;4.05;;;1.90;;
28724;SDS011;43472;48.980;9.646;2023-02-01T06:36:09;1.98;;;1.58;;
28724;SDS011;43472;48.980;9.646;2023-02-01T06:41:13;3.13;;;1.88;;
28724;SDS011;43472;48.980;9.646;2023-02-01T06:46:15;4.40;;;1.92;;
28724;SDS011;43472;48.980;9.646;2023-02-01T06:51:18;4.00;;;1.98;;
28724;SDS011;43472;48.980;9.646;2023-02-01T06:56:25;4.20;;;2.08;;
28724;SDS011;43472;48.980;9.646;2023-02-01T07:01:27;5.50;;;2.58;;
28724;SDS011;43472;48.980;9.646;2023-02-01T07:06:29;5.50;;;2.42;;
28724;SDS011;43472;48.980;9.646;2023-02-01T07:11:31;5.93;;;2.47;;
28724;SDS011;43472;48.980;9.646;2023-02-01T07:16:33;5.35;;;3.08;;
28724;SDS011;43472;48.980;9.646;2023-02-01T07:21:35;6.00;;;2.80;;
28724;SDS011;43472;48.980;9.646;2023-02-01T07:26:37;9.18;;;3.40;;
28724;SDS011;43472;48.980;9.646;2023-02-01T07:31:39;12.77;;;4.32;;
28724;SDS011;43472;48.980;9.646;2023-02-01T07:36:41;8.77;;;3.70;;
28724;SDS011;43472;48.980;9.646;2023-02-01T07:41:43;5.75;;;3.33;;
28724;SDS011;43472;48.980;9.646;2023-02-01T07:46:46;9.23;;;3.45;;
28724;SDS011;43472;48.980;9.646;2023-02-01T07:51:48;9.50;;;3.53;;
28724;SDS011;43472;48.980;9.646;2023-02-01T07:56:51;9.98;;;4.03;;
28724;SDS011;43472;48.980;9.646;2023-02-01T08:01:52;9.55;;;3.67;;
28724;SDS011;43472;48.980;9.646;2023-02-01T08:06:54;7.28;;;3.78;;
28724;SDS011;43472;48.980;9.646;2023-02-01T08:11:56;10.02;;;3.22;;
28724;SDS011;43472;48.980;9.646;2023-02-01T08:16:58;11.50;;;3.95;;
28724;SDS011;43472;48.980;9.646;2023-02-01T08:22:00;13.82;;;3.90;;
28724;SDS011;43472;48.980;9.646;2023-02-01T08:27:07;11.73;;;4.53;;
28724;SDS011;43472;48.980;9.646;2023-02-01T08:32:09;12.20;;;4.30;;
28724;SDS011;43472;48.980;9.646;2023-02-01T08:37:11;9.95;;;4.53;;
28724;SDS011;43472;48.980;9.646;2023-02-01T08:42:14;14.20;;;4.22;;
28724;SDS011;43472;48.980;9.646;2023-02-01T08:47:34;10.32;;;3.58;;
28724;SDS011;43472;48.980;9.646;2023-02-01T08:52:36;14.05;;;4.05;;
28724;SDS011;43472;48.980;9.646;2023-02-01T08:57:38;14.00;;;4.28;;
28724;SDS011;43472;48.980;9.646;2023-02-01T09:02:41;12.00;;;4.40;;
28724;SDS011;43472;48.980;9.646;2023-02-01T09:07:43;14.20;;;3.72;;
28724;SDS011;43472;48.980;9.646;2023-02-01T09:12:45;12.15;;;3.75;;
28724;SDS011;43472;48.980;9.646;2023-02-01T09:17:47;10.05;;;4.70;;
28724;SDS011;43472;48.980;9.646;2023-02-01T09:22:50;11.80;;;3.65;;
28724;SDS011;43472;48.980;9.646;2023-02-01T09:27:53;10.77;;;3.63;;
28724;SDS011;43472;48.980;9.646;2023-02-01T09:32:55;11.48;;;3.65;;
28724;SDS011;43472;48.980;9.646;2023-02-01T09:37:57;9.52;;;3.33;;
28724;SDS011;43472;48.980;9.646;2023-02-01T09:43:02;12.02;;;3.53;;
28724;SDS011;43472;48.980;9.646;2023-02-01T09:48:34;10.48;;;2.90;;
28724;SDS011;43472;48.980;9.646;2023-02-01T09:53:40;11.05;;;3.08;;
28724;SDS011;43472;48.980;9.646;2023-02-01T09:58:47;12.90;;;3.25;;
28724;SDS011;43472;48.980;9.646;2023-02-01T10:04:02;13.85;;;4.93;;
28724;SDS011;43472;48.980;9.646;2023-02-01T10:14:40;14.15;;;3.58;;
28724;SDS011;43472;48.980;9.646;2023-02-01T10:25:14;18.90;;;3.22;;
28724;SDS011;43472;48.980;9.646;2023-02-01T10:30:26;13.10;;;3.35;;
28724;SDS011;43472;48.980;9.646;2023-02-01T10:35:39;12.00;;;2.65;;
28724;SDS011;43472;48.980;9.646;2023-02-01T10:40:42;20.35;;;3.33;;
28724;SDS011;43472;48.980;9.646;2023-02-01T10:45:44;7.47;;;2.47;;
28724;SDS011;43472;48.980;9.646;2023-02-01T10:50:51;20.17;;;3.22;;
28724;SDS011;43472;48.980;9.646;2023-02-01T10:56:01;14.60;;;3.13;;
28724;SDS011;43472;48.980;9.646;2023-02-01T11:01:10;17.30;;;3.75;;
28724;SDS011;43472;48.980;9.646;2023-02-01T11:06:24;15.30;;;3.08;;
28724;SDS011;43472;48.980;9.646;2023-02-01T11:11:32;16.95;;;4.10;;
28724;SDS011;43472;48.980;9.646;2023-02-01T11:22:29;13.05;;;3.28;;
28724;SDS011;43472;48.980;9.646;2023-02-01T11:27:31;13.95;;;3.25;;
28724;SDS011;43472;48.980;9.646;2023-02-01T11:32:38;14.45;;;3.33;;
28724;SDS011;43472;48.980;9.646;2023-02-01T11:37:41;10.55;;;2.40;;
28724;SDS011;43472;48.980;9.646;2023-02-01T11:47:56;12.43;;;2.40;;
28724;SDS011;43472;48.980;9.646;2023-02-01T12:25:21;17.90;;;2.85;;
28724;SDS011;43472;48.980;9.646;2023-02-01T12:36:23;22.02;;;5.10;;
28724;SDS011;43472;48.980;9.646;2023-02-01T12:46:59;10.93;;;2.33;;
28724;SDS011;43472;48.980;9.646;2023-02-01T12:52:14;10.85;;;3.35;;
28724;SDS011;43472;48.980;9.646;2023-02-01T12:57:37;17.67;;;2.80;;
28724;SDS011;43472;48.980;9.646;2023-02-01T13:02:46;12.38;;;4.47;;
28724;SDS011;43472;48.980;9.646;2023-02-01T13:07:57;8.35;;;2.58;;
28724;SDS011;43472;48.980;9.646;2023-02-01T13:13:14;12.82;;;2.83;;
28724;SDS011;43472;48.980;9.646;2023-02-01T13:18:19;7.22;;;2.78;;
28724;SDS011;43472;48.980;9.646;2023-02-01T13:23:26;15.45;;;2.47;;
28724;SDS011;43472;48.980;9.646;2023-02-01T13:39:28;8.68;;;2.00;;
28724;SDS011;43472;48.980;9.646;2023-02-01T13:44:47;12.00;;;2.92;;
28724;SDS011;43472;48.980;9.646;2023-02-01T13:49:53;14.27;;;2.95;;
28724;SDS011;43472;48.980;9.646;2023-02-01T14:16:00;18.08;;;5.90;;
28724;SDS011;43472;48.980;9.646;2023-02-01T14:37:08;10.98;;;2.70;;
28724;SDS011;43472;48.980;9.646;2023-02-01T14:58:18;14.73;;;2.25;;
28724;SDS011;43472;48.980;9.646;2023-02-01T15:03:34;9.52;;;2.35;;
28724;SDS011;43472;48.980;9.646;2023-02-01T15:08:38;20.35;;;2.97;;
28724;SDS011;43472;48.980;9.646;2023-02-01T15:13:47;17.52;;;2.67;;
28724;SDS011;43472;48.980;9.646;2023-02-01T15:19:06;13.80;;;2.75;;
28724;SDS011;43472;48.980;9.646;2023-02-01T15:24:12;15.25;;;2.30;;
28724;SDS011;43472;48.980;9.646;2023-02-01T15:29:15;15.25;;;2.75;;
28724;SDS011;43472;48.980;9.646;2023-02-01T15:34:18;23.08;;;10.02;;
28724;SDS011;43472;48.980;9.646;2023-02-01T15:39:22;19.85;;;5.57;;
28724;SDS011;43472;48.980;9.646;2023-02-01T15:49:49;15.98;;;3.15;;
28724;SDS011;43472;48.980;9.646;2023-02-01T15:55:00;15.38;;;5.05;;
28724;SDS011;43472;48.980;9.646;2023-02-01T16:00:08;19.02;;;3.35;;
28724;SDS011;43472;48.980;9.646;2023-02-01T16:05:32;12.48;;;2.33;;
28724;SDS011;43472;48.980;9.646;2023-02-01T16:10:38;10.70;;;2.13;;
28724;SDS011;43472;48.980;9.646;2023-02-01T16:15:42;9.05;;;1.98;;
28724;SDS011;43472;48.980;9.646;2023-02-01T16:20:48;17.08;;;2.97;;
28724;SDS011;43472;48.980;9.646;2023-02-01T16:25:49;18.85;;;4.22;;
28724;SDS011;43472;48.980;9.646;2023-02-01T16:30:52;15.52;;;3.25;;
28724;SDS011;43472;48.980;9.646;2023-02-01T16:35:55;8.18;;;2.20;;
28724;SDS011;43472;48.980;9.646;2023-02-01T16:41:01;20.92;;;4.80;;
28724;SDS011;43472;48.980;9.646;2023-02-01T16:46:04;17.25;;;2.63;;
28724;SDS011;43472;48.980;9.646;2023-02-01T16:51:10;18.92;;;7.15;;
28724;SDS011;43472;48.980;9.646;2023-02-01T16:56:15;21.40;;;6.82;;
28724;SDS011;43472;48.980;9.646;2023-02-01T17:01:20;16.80;;;3.15;;
28724;SDS011;43472;48.980;9.646;2023-02-01T17:06:23;18.23;;;3.22;;
28724;SDS011;43472;48.980;9.646;2023-02-01T17:11:26;16.40;;;3.10;;
28724;SDS011;43472;48.980;9.646;2023-02-01T17:16:31;12.13;;;2.72;;
28724;SDS011;43472;48.980;9.646;2023-02-01T17:21:43;18.58;;;4.75;;
28724;SDS011;43472;48.980;9.646;2023-02-01T17:26:49;12.80;;;4.15;;
28724;SDS011;43472;48.980;9.646;2023-02-01T17:31:53;15.95;;;3.15;;
28724;SDS011;43472;48.980;9.646;2023-02-01T17:36:56;12.18;;;3.00;;
28724;SDS011;43472;48.980;9.646;2023-02-01T17:41:58;17.08;;;4.95;;
28724;SDS011;43472;48.980;9.646;2023-02-01T17:47:01;11.75;;;2.63;;
28724;SDS011;43472;48.980;9.646;2023-02-01T17:52:04;13.68;;;3.75;;
28724;SDS011;43472;48.980;9.646;2023-02-01T17:57:15;15.02;;;2.97;;
28724;SDS011;43472;48.980;9.646;2023-02-01T18:02:18;17.00;;;3.10;;
28724;SDS011;43472;48.980;9.646;2023-02-01T18:07:22;10.02;;;2.90;;
28724;SDS011;43472;48.980;9.646;2023-02-01T18:12:26;12.90;;;3.80;;
28724;SDS011;43472;48.980;9.646;2023-02-01T18:17:31;12.18;;;2.38;;
28724;SDS011;43472;48.980;9.646;2023-02-01T18:22:33;16.38;;;2.92;;
28724;SDS011;43472;48.980;9.646;2023-02-01T18:27:37;13.00;;;2.78;;
28724;SDS011;43472;48.980;9.646;2023-02-01T18:38:37;8.93;;;2.63;;
28724;SDS011;43472;48.980;9.646;2023-02-01T18:43:39;7.68;;;2.28;;
28724;SDS011;43472;48.980;9.646;2023-02-01T18:48:50;6.80;;;2.05;;
28724;SDS011;43472;48.980;9.646;2023-02-01T18:54:24;16.30;;;3.63;;
28724;SDS011;43472;48.980;9.646;2023-02-01T18:59:31;14.43;;;2.85;;
28724;SDS011;43472;48.980;9.646;2023-02-01T19:04:32;9.93;;;4.43;;
28724;SDS011;43472;48.980;9.646;2023-02-01T19:09:36;10.00;;;2.78;;
28724;SDS011;43472;48.980;9.646;2023-02-01T19:15:30;11.13;;;2.10;;
28724;SDS011;43472;48.980;9.646;2023-02-01T19:21:02;14.75;;;2.97;;
28724;SDS011;43472;48.980;9.646;2023-02-01T19:26:29;15.65;;;3.25;;
28724;SDS011;43472;48.980;9.646;2023-02-01T19:31:46;14.00;;;2.60;;
28724;SDS011;43472;48.980;9.646;2023-02-01T19:37:05;18.50;;;2.63;;
28724;SDS011;43472;48.980;9.646;2023-02-01T19:42:18;21.58;;;4.07;;
28724;SDS011;43472;48.980;9.646;2023-02-01T19:48:00;14.10;;;2.33;;
28724;SDS011;43472;48.980;9.646;2023-02-01T19:53:15;15.82;;;2.72;;
28724;SDS011;43472;48.980;9.646;2023-02-01T19:58:23;7.40;;;2.30;;
28724;SDS011;43472;48.980;9.646;2023-02-01T20:03:30;14.85;;;3.72;;
28724;SDS011;43472;48.980;9.646;2023-02-01T20:09:43;17.08;;;3.33;;
28724;SDS011;43472;48.980;9.646;2023-02-01T20:15:30;9.10;;;1.60;;
28724;SDS011;43472;48.980;9.646;2023-02-01T20:20:33;17.67;;;3.67;;
28724;SDS011;43472;48.980;9.646;2023-02-01T20:25:36;16.60;;;3.15;;
28724;SDS011;43472;48.980;9.646;2023-02-01T20:30:47;17.98;;;2.70;;
28724;SDS011;43472;48.980;9.646;2023-02-01T20:35:55;11.40;;;2.42;;
28724;SDS011;43472;48.980;9.646;2023-02-01T20:41:04;12.43;;;3.00;;
28724;SDS011;43472;48.980;9.646;2023-02-01T20:46:24;17.10;;;2.40;;
28724;SDS011;43472;48.980;9.646;2023-02-01T20:51:26;12.43;;;2.20;;
28724;SDS011;43472;48.980;9.646;2023-02-01T20:56:29;9.48;;;2.22;;
28724;SDS011;43472;48.980;9.646;2023-02-01T21:01:31;10.63;;;2.40;;
28724;SDS011;43472;48.980;9.646;2023-02-01T21:06:34;18.63;;;2.72;;
28724;SDS011;43472;48.980;9.646;2023-02-01T21:11:37;12.82;;;2.50;;
28724;SDS011;43472;48.980;9.646;2023-02-01T21:16:39;11.15;;;2.05;;
28724;SDS011;43472;48.980;9.646;2023-02-01T21:21:44;16.95;;;3.05;;
28724;SDS011;43472;48.980;9.646;2023-02-01T21:26:46;17.33;;;3.00;;
28724;SDS011;43472;48.980;9.646;2023-02-01T21:31:49;14.38;;;2.60;;
28724;SDS011;43472;48.980;9.646;2023-02-01T21:36:51;14.85;;;2.65;;
28724;SDS011;43472;48.980;9.646;2023-02-01T21:41:55;13.27;;;2.63;;
28724;SDS011;43472;48.980;9.646;2023-02-01T21:47:20;10.45;;;2.75;;
28724;SDS011;43472;48.980;9.646;2023-02-01T21:52:28;16.33;;;2.65;;
28724;SDS011;43472;48.980;9.646;2023-02-01T21:57:32;28.17;;;4.47;;
28724;SDS011;43472;48.980;9.646;2023-02-01T22:02:34;9.60;;;1.73;;
28724;SDS011;43472;48.980;9.646;2023-02-01T22:07:40;14.50;;;2.25;;
28724;SDS011;43472;48.980;9.646;2023-02-01T22:12:51;14.65;;;3.33;;
28724;SDS011;43472;48.980;9.646;2023-02-01T22:18:18;13.25;;;2.75;;
28724;SDS011;43472;48.980;9.646;2023-02-01T22:23:20;11.18;;;2.67;;
28724;SDS011;43472;48.980;9.646;2023-02-01T22:28:27;19.70;;;2.67;;
28724;SDS011;43472;48.980;9.646;2023-02-01T22:33:34;9.38;;;3.00;;
28724;SDS011;43472;48.980;9.646;2023-02-01T22:38:37;8.73;;;2.33;;
28724;SDS011;43472;48.980;9.646;2023-02-01T22:43:42;35.45;;;3.28;;
28724;SDS011;43472;48.980;9.646;2023-02-01T22:48:45;13.98;;;2.83;;
28724;SDS011;43472;48.980;9.646;2023-02-01T22:53:47;11.25;;;2.15;;
28724;SDS011;43472;48.980;9.646;2023-02-01T22:58:58;13.10;;;2.53;;
28724;SDS011;43472;48.980;9.646;2023-02-01T23:04:04;10.48;;;2.00;;
28724;SDS011;43472;48.980;9.646;2023-02-01T23:09:15;19.40;;;2.40;;
28724;SDS011;43472;48.980;9.646;2023-02-01T23:14:18;7.43;;;2.20;;
28724;SDS011;43472;48.980;9.646;2023-02-01T23:19:21;9.13;;;2.22;;
28724;SDS011;43472;48.980;9.646;2023-02-01T23:24:23;13.43;;;2.13;;
28724;SDS011;43472;48.980;9.646;2023-02-01T23:29:25;9.63;;;2.30;;
28724;SDS011;43472;48.980;9.646;2023-02-01T23:34:28;12.23;;;2.33;;
28724;SDS011;43472;48.980;9.646;2023-02-01T23:39:30;13.55;;;2.55;;
28724;SDS011;43472;48.980;9.646;2023-02-01T23:44:33;17.25;;;2.90;;
28724;SDS011;43472;48.980;9.646;2023-02-01T23:49:37;14.52;;;2.80;;
28724;SDS011;43472;48.980;9.646;2023-02-01T23:54:42;12.20;;;2.60;;
28724;SDS011;43472;48.980;9.646;2023-02-01T23:59:44;10.90;;;2.95;;
